sensor_id;sensor_type;location;lat;lon;timestamp;pressure;altitude;pressure_sealevel;temperature;humidity
20145;BME280;10233;50.814;6.590;2023-05-20T00:00:39;100806.34;;;13.88;98.76
20145;BME280;10233;50.814;6.590;2023-05-20T00:01:40;100812.47;;;13.88;98.78
20145;BME280;10233;50.814;6.590;2023-05-20T00:02:40;100805.69;;;13.86;98.18
20145;BME280;10233;50.814;6.590;2023-05-20T00:03:40;100802.00;;;13.87;97.73
20145;BME280;10233;50.814;6.590;2023-05-20T00:04:41;100811.44;;;13.89;97.63
20145;BME280;10233;50.814;6.590;2023-05-20T00:05:43;100811.88;;;13.86;97.50
20145;BME280;10233;50.814;6.590;2023-05-20T00:06:43;100806.53;;;13.86;97.48
20145;BME280;10233;50.814;6.590;2023-05-20T00:07:44;100812.91;;;13.85;97.36
20145;BME280;10233;50.814;6.590;2023-05-20T00:08:44;100811.25;;;13.91;97.16
20145;BME280;10233;50.814;6.590;2023-05-20T00:09:45;100804.06;;;13.85;97.61
20145;BME280;10233;50.814;6.590;2023-05-20T00:10:45;100807.78;;;13.90;97.64
20145;BME280;10233;50.814;6.590;2023-05-20T00:11:46;100805.69;;;13.86;97.52
20145;BME280;10233;50.814;6.590;2023-05-20T00:12:46;100809.63;;;13.83;98.01
20145;BME280;10233;50.814;6.590;2023-05-20T00:13:47;100808.59;;;13.78;98.40
20145;BME280;10233;50.814;6.590;2023-05-20T00:14:47;100810.66;;;13.82;98.79
20145;BME280;10233;50.814;6.590;2023-05-20T00:15:47;100811.91;;;13.73;98.59
20145;BME280;10233;50.814;6.590;2023-05-20T00:16:48;100807.38;;;13.74;98.75
20145;BME280;10233;50.814;6.590;2023-05-20T00:17:48;100810.47;;;13.71;99.15
20145;BME280;10233;50.814;6.590;2023-05-20T00:18:49;100815.41;;;13.67;99.46
20145;BME280;10233;50.814;6.590;2023-05-20T00:19:49;100809.88;;;13.62;99.76
20145;BME280;10233;50.814;6.590;2023-05-20T00:20:50;100817.88;;;13.56;100.00
20145;BME280;10233;50.814;6.590;2023-05-20T00:21:50;100814.81;;;13.52;100.00
20145;BME280;10233;50.814;6.590;2023-05-20T00:22:51;100814.81;;;13.52;100.00
20145;BME280;10233;50.814;6.590;2023-05-20T00:23:51;100815.84;;;13.45;100.00
20145;BME280;10233;50.814;6.590;2023-05-20T00:24:51;100811.94;;;13.41;100.00
20145;BME280;10233;50.814;6.590;2023-05-20T00:25:52;100818.31;;;13.40;100.00
20145;BME280;10233;50.814;6.590;2023-05-20T00:26:52;100823.22;;;13.36;100.00
20145;BME280;10233;50.814;6.590;2023-05-20T00:27:53;100816.22;;;13.35;100.00
20145;BME280;10233;50.814;6.590;2023-05-20T00:28:53;100817.06;;;13.36;100.00
20145;BME280;10233;50.814;6.590;2023-05-20T00:29:54;100817.69;;;13.38;100.00
20145;BME280;10233;50.814;6.590;2023-05-20T00:30:54;100819.31;;;13.39;100.00
20145;BME280;10233;50.814;6.590;2023-05-20T00:31:55;100814.81;;;13.46;100.00
20145;BME280;10233;50.814;6.590;2023-05-20T00:32:56;100817.69;;;13.44;100.00
20145;BME280;10233;50.814;6.590;2023-05-20T00:33:56;100821.38;;;13.43;100.00
20145;BME280;10233;50.814;6.590;2023-05-20T00:34:58;100812.34;;;13.44;100.00
20145;BME280;10233;50.814;6.590;2023-05-20T00:35:58;100810.91;;;13.48;100.00
20145;BME280;10233;50.814;6.590;2023-05-20T00:36:59;100810.31;;;13.46;100.00
20145;BME280;10233;50.814;6.590;2023-05-20T00:38:00;100811.94;;;13.47;100.00
20145;BME280;10233;50.814;6.590;2023-05-20T00:39:00;100808.22;;;13.48;100.00
20145;BME280;10233;50.814;6.590;2023-05-20T00:40:01;100806.16;;;13.50;99.95
20145;BME280;10233;50.814;6.590;2023-05-20T00:41:01;100803.28;;;13.52;100.00
20145;BME280;10233;50.814;6.590;2023-05-20T00:42:02;100800.63;;;13.45;100.00
20145;BME280;10233;50.814;6.590;2023-05-20T00:43:02;100807.00;;;13.51;100.00
20145;BME280;10233;50.814;6.590;2023-05-20T00:44:03;100804.94;;;13.46;100.00
20145;BME280;10233;50.814;6.590;2023-05-20T00:45:04;100807.44;;;13.41;100.00
20145;BME280;10233;50.814;6.590;2023-05-20T00:46:05;100805.16;;;13.45;100.00
20145;BME280;10233;50.814;6.590;2023-05-20T00:47:05;100806.59;;;13.41;100.00
20145;BME280;10233;50.814;6.590;2023-05-20T00:48:06;100802.47;;;13.38;100.00
20145;BME280;10233;50.814;6.590;2023-05-20T00:49:06;100804.75;;;13.41;100.00
20145;BME280;10233;50.814;6.590;2023-05-20T00:50:10;100803.28;;;13.45;100.00
20145;BME280;10233;50.814;6.590;2023-05-20T00:51:12;100797.13;;;13.45;100.00
20145;BME280;10233;50.814;6.590;2023-05-20T00:52:14;100805.16;;;13.38;100.00
20145;BME280;10233;50.814;6.590;2023-05-20T00:53:16;100803.91;;;13.34;100.00
20145;BME280;10233;50.814;6.590;2023-05-20T00:54:17;100803.72;;;13.29;100.00
20145;BME280;10233;50.814;6.590;2023-05-20T00:55:18;100800.84;;;13.31;100.00
20145;BME280;10233;50.814;6.590;2023-05-20T00:56:19;100797.97;;;13.26;100.00
20145;BME280;10233;50.814;6.590;2023-05-20T00:57:21;100796.09;;;13.26;100.00
20145;BME280;10233;50.814;6.590;2023-05-20T00:58:21;100799.41;;;13.28;100.00
20145;BME280;10233;50.814;6.590;2023-05-20T00:59:22;100797.94;;;13.39;100.00
20145;BME280;10233;50.814;6.590;2023-05-20T01:00:23;100793.84;;;13.36;100.00
20145;BME280;10233;50.814;6.590;2023-05-20T01:01:23;100786.44;;;13.38;100.00
20145;BME280;10233;50.814;6.590;2023-05-20T01:02:24;100793.03;;;13.29;100.00
20145;BME280;10233;50.814;6.590;2023-05-20T01:03:24;100796.31;;;13.31;100.00
20145;BME280;10233;50.814;6.590;2023-05-20T01:04:26;100785.00;;;13.23;100.00
20145;BME280;10233;50.814;6.590;2023-05-20T01:05:27;100788.13;;;13.20;100.00
20145;BME280;10233;50.814;6.590;2023-05-20T01:06:27;100794.88;;;13.22;100.00
20145;BME280;10233;50.814;6.590;2023-05-20T01:07:28;100792.63;;;13.19;100.00
20145;BME280;10233;50.814;6.590;2023-05-20T01:08:29;100788.91;;;13.20;100.00
20145;BME280;10233;50.814;6.590;2023-05-20T01:09:30;100788.72;;;13.22;100.00
20145;BME280;10233;50.814;6.590;2023-05-20T01:10:34;100780.69;;;13.15;100.00
20145;BME280;10233;50.814;6.590;2023-05-20T01:11:44;100790.56;;;13.08;100.00
20145;BME280;10233;50.814;6.590;2023-05-20T01:12:53;100783.78;;;13.06;100.00
20145;BME280;10233;50.814;6.590;2023-05-20T01:14:05;100782.16;;;13.05;100.00
20145;BME280;10233;50.814;6.590;2023-05-20T01:15:08;100785.41;;;13.00;100.00
20145;BME280;10233;50.814;6.590;2023-05-20T01:16:10;100783.59;;;13.07;100.00
20145;BME280;10233;50.814;6.590;2023-05-20T01:17:11;100785.81;;;13.10;100.00
20145;BME280;10233;50.814;6.590;2023-05-20T01:18:13;100783.59;;;13.07;100.00
20145;BME280;10233;50.814;6.590;2023-05-20T01:19:40;100782.34;;;13.10;100.00
20145;BME280;10233;50.814;6.590;2023-05-20T01:20:50;100781.13;;;13.06;100.00
20145;BME280;10233;50.814;6.590;2023-05-20T01:21:55;100781.72;;;13.14;100.00
20145;BME280;10233;50.814;6.590;2023-05-20T01:22:57;100783.78;;;13.12;100.00
20145;BME280;10233;50.814;6.590;2023-05-20T01:23:57;100782.34;;;13.16;100.00
20145;BME280;10233;50.814;6.590;2023-05-20T01:24:58;100786.66;;;13.04;100.00
20145;BME280;10233;50.814;6.590;2023-05-20T01:25:59;100780.06;;;13.00;100.00
20145;BME280;10233;50.814;6.590;2023-05-20T01:27:00;100784.56;;;12.93;100.00
20145;BME280;10233;50.814;6.590;2023-05-20T01:28:00;100786.59;;;12.85;100.00
20145;BME280;10233;50.814;6.590;2023-05-20T01:29:03;100781.03;;;12.80;100.00
20145;BME280;10233;50.814;6.590;2023-05-20T01:30:04;100782.25;;;12.77;100.00
20145;BME280;10233;50.814;6.590;2023-05-20T01:31:10;100779.16;;;12.67;100.00
20145;BME280;10233;50.814;6.590;2023-05-20T01:32:20;100783.50;;;12.68;100.00
20145;BME280;10233;50.814;6.590;2023-05-20T01:33:23;100779.38;;;12.66;100.00
20145;BME280;10233;50.814;6.590;2023-05-20T01:34:24;100775.28;;;12.63;100.00
20145;BME280;10233;50.814;6.590;2023-05-20T01:35:25;100779.78;;;12.63;100.00
20145;BME280;10233;50.814;6.590;2023-05-20T01:36:27;100770.13;;;12.55;100.00
20145;BME280;10233;50.814;6.590;2023-05-20T01:37:28;100786.31;;;12.54;100.00
20145;BME280;10233;50.814;6.590;2023-05-20T01:38:30;100777.50;;;12.47;100.00
20145;BME280;10233;50.814;6.590;2023-05-20T01:39:35;100776.03;;;12.44;100.00
20145;BME280;10233;50.814;6.590;2023-05-20T01:40:37;100772.13;;;12.40;100.00
20145;BME280;10233;50.814;6.590;2023-05-20T01:41:39;100768.03;;;12.44;100.00
20145;BME280;10233;50.814;6.590;2023-05-20T01:42:41;100776.03;;;12.44;100.00
20145;BME280;10233;50.814;6.590;2023-05-20T01:43:43;100768.66;;;12.46;100.00
20145;BME280;10233;50.814;6.590;2023-05-20T01:44:43;100766.59;;;12.42;100.00
20145;BME280;10233;50.814;6.590;2023-05-20T01:45:44;100777.69;;;12.45;100.00
20145;BME280;10233;50.814;6.590;2023-05-20T01:46:48;100770.72;;;12.44;100.00
20145;BME280;10233;50.814;6.590;2023-05-20T01:47:49;100770.69;;;12.38;100.00
20145;BME280;10233;50.814;6.590;2023-05-20T01:48:50;100770.47;;;12.33;100.00
20145;BME280;10233;50.814;6.590;2023-05-20T01:49:50;100777.00;;;12.30;100.00
20145;BME280;10233;50.814;6.590;2023-05-20T01:50:53;100771.28;;;12.27;100.00
20145;BME280;10233;50.814;6.590;2023-05-20T01:51:54;100775.97;;;12.25;100.00
20145;BME280;10233;50.814;6.590;2023-05-20T01:52:55;100769.38;;;12.21;100.00
20145;BME280;10233;50.814;6.590;2023-05-20T01:53:55;100769.81;;;12.24;100.00
20145;BME280;10233;50.814;6.590;2023-05-20T01:54:56;100767.78;;;12.26;100.00
20145;BME280;10233;50.814;6.590;2023-05-20T01:55:56;100771.03;;;12.28;100.00
20145;BME280;10233;50.814;6.590;2023-05-20T01:56:57;100763.47;;;12.25;100.00
20145;BME280;10233;50.814;6.590;2023-05-20T01:57:57;100762.84;;;12.30;100.00
20145;BME280;10233;50.814;6.590;2023-05-20T01:58:58;100762.44;;;12.26;100.00
20145;BME280;10233;50.814;6.590;2023-05-20T01:59:59;100761.38;;;12.21;100.00
20145;BME280;10233;50.814;6.590;2023-05-20T02:00:59;100762.00;;;12.16;100.00
20145;BME280;10233;50.814;6.590;2023-05-20T02:02:01;100761.16;;;12.16;100.00
20145;BME280;10233;50.814;6.590;2023-05-20T02:03:01;100755.41;;;12.12;100.00
20145;BME280;10233;50.814;6.590;2023-05-20T02:04:02;100751.91;;;12.05;100.00
20145;BME280;10233;50.814;6.590;2023-05-20T02:05:04;100749.63;;;12.02;100.00
20145;BME280;10233;50.814;6.590;2023-05-20T02:06:04;100753.50;;;12.00;100.00
20145;BME280;10233;50.814;6.590;2023-05-20T02:07:05;100754.97;;;12.02;100.00
20145;BME280;10233;50.814;6.590;2023-05-20T02:08:05;100748.38;;;11.98;100.00
20145;BME280;10233;50.814;6.590;2023-05-20T02:09:06;100753.66;;;11.92;100.00
20145;BME280;10233;50.814;6.590;2023-05-20T02:10:07;100763.47;;;11.85;100.00
20145;BME280;10233;50.814;6.590;2023-05-20T02:11:07;100754.47;;;11.86;100.00
20145;BME280;10233;50.814;6.590;2023-05-20T02:12:10;100759.56;;;11.81;100.00
20145;BME280;10233;50.814;6.590;2023-05-20T02:13:16;100762.59;;;11.71;100.00
20145;BME280;10233;50.814;6.590;2023-05-20T02:14:17;100760.91;;;11.70;100.00
20145;BME280;10233;50.814;6.590;2023-05-20T02:15:17;100767.47;;;11.68;100.00
20145;BME280;10233;50.814;6.590;2023-05-20T02:16:18;100760.66;;;11.59;100.00
20145;BME280;10233;50.814;6.590;2023-05-20T02:17:18;100770.31;;;11.60;100.00
20145;BME280;10233;50.814;6.590;2023-05-20T02:18:19;100765.13;;;11.58;100.00
20145;BME280;10233;50.814;6.590;2023-05-20T02:19:19;100769.00;;;11.56;100.00
20145;BME280;10233;50.814;6.590;2023-05-20T02:20:22;100764.53;;;11.56;100.00
20145;BME280;10233;50.814;6.590;2023-05-20T02:21:23;100762.84;;;11.55;100.00
20145;BME280;10233;50.814;6.590;2023-05-20T02:22:24;100760.00;;;11.57;100.00
20145;BME280;10233;50.814;6.590;2023-05-20T02:23:25;100758.81;;;11.59;100.00
20145;BME280;10233;50.814;6.590;2023-05-20T02:24:25;100761.91;;;11.63;100.00
20145;BME280;10233;50.814;6.590;2023-05-20T02:25:26;100756.38;;;11.64;100.00
20145;BME280;10233;50.814;6.590;2023-05-20T02:26:26;100758.03;;;11.65;100.00
20145;BME280;10233;50.814;6.590;2023-05-20T02:27:27;100752.69;;;11.65;100.00
20145;BME280;10233;50.814;6.590;2023-05-20T02:28:28;100753.72;;;11.64;100.00
20145;BME280;10233;50.814;6.590;2023-05-20T02:29:29;100760.06;;;11.63;100.00
20145;BME280;10233;50.814;6.590;2023-05-20T02:30:30;100749.81;;;11.60;100.00
20145;BME280;10233;50.814;6.590;2023-05-20T02:31:31;100762.47;;;11.58;100.00
20145;BME280;10233;50.814;6.590;2023-05-20T02:32:31;100755.13;;;11.60;100.00
20145;BME280;10233;50.814;6.590;2023-05-20T02:33:33;100752.66;;;11.59;100.00
20145;BME280;10233;50.814;6.590;2023-05-20T02:34:34;100763.31;;;11.59;100.00
20145;BME280;10233;50.814;6.590;2023-05-20T02:35:35;100764.13;;;11.59;100.00
20145;BME280;10233;50.814;6.590;2023-05-20T02:36:35;100762.22;;;11.53;100.00
20145;BME280;10233;50.814;6.590;2023-05-20T02:37:36;100764.06;;;11.53;100.00
20145;BME280;10233;50.814;6.590;2023-05-20T02:38:38;100764.28;;;11.51;100.00
20145;BME280;10233;50.814;6.590;2023-05-20T02:39:39;100764.47;;;11.50;100.00
20145;BME280;10233;50.814;6.590;2023-05-20T02:40:43;100769.38;;;11.53;100.00
20145;BME280;10233;50.814;6.590;2023-05-20T02:41:44;100766.28;;;11.49;100.00
20145;BME280;10233;50.814;6.590;2023-05-20T02:42:44;100764.03;;;11.46;100.00
20145;BME280;10233;50.814;6.590;2023-05-20T02:43:46;100763.41;;;11.44;100.00
20145;BME280;10233;50.814;6.590;2023-05-20T02:44:46;100757.06;;;11.45;100.00
20145;BME280;10233;50.814;6.590;2023-05-20T02:45:47;100759.34;;;11.48;100.00
20145;BME280;10233;50.814;6.590;2023-05-20T02:46:47;100765.91;;;11.52;100.00
20145;BME280;10233;50.814;6.590;2023-05-20T02:47:48;100768.81;;;11.57;100.00
20145;BME280;10233;50.814;6.590;2023-05-20T02:48:48;100762.84;;;11.55;100.00
20145;BME280;10233;50.814;6.590;2023-05-20T02:49:48;100759.19;;;11.56;100.00
20145;BME280;10233;50.814;6.590;2023-05-20T02:50:49;100754.63;;;11.50;100.00
20145;BME280;10233;50.814;6.590;2023-05-20T02:51:50;100761.41;;;11.53;100.00
20145;BME280;10233;50.814;6.590;2023-05-20T02:52:51;100752.41;;;11.54;100.00
20145;BME280;10233;50.814;6.590;2023-05-20T02:53:51;100745.22;;;11.54;100.00
20145;BME280;10233;50.814;6.590;2023-05-20T02:54:52;100746.88;;;11.55;100.00
20145;BME280;10233;50.814;6.590;2023-05-20T02:55:53;100740.75;;;11.55;100.00
20145;BME280;10233;50.814;6.590;2023-05-20T02:56:54;100749.16;;;11.58;100.00
20145;BME280;10233;50.814;6.590;2023-05-20T02:57:54;100741.00;;;11.60;100.00
20145;BME280;10233;50.814;6.590;2023-05-20T02:58:55;100746.16;;;11.61;100.00
20145;BME280;10233;50.814;6.590;2023-05-20T02:59:56;100742.00;;;11.59;100.00
20145;BME280;10233;50.814;6.590;2023-05-20T03:00:57;100744.84;;;11.57;100.00
20145;BME280;10233;50.814;6.590;2023-05-20T03:01:57;100747.13;;;11.60;100.00
20145;BME280;10233;50.814;6.590;2023-05-20T03:02:58;100751.81;;;11.58;100.00
20145;BME280;10233;50.814;6.590;2023-05-20T03:03:58;100752.19;;;11.55;100.00
20145;BME280;10233;50.814;6.590;2023-05-20T03:04:59;100749.94;;;11.52;100.00
20145;BME280;10233;50.814;6.590;2023-05-20T03:05:59;100739.53;;;11.57;100.00
20145;BME280;10233;50.814;6.590;2023-05-20T03:07:00;100748.06;;;11.46;100.00
20145;BME280;10233;50.814;6.590;2023-05-20T03:08:00;100742.75;;;11.46;100.00
20145;BME280;10233;50.814;6.590;2023-05-20T03:09:01;100737.00;;;11.49;100.00
20145;BME280;10233;50.814;6.590;2023-05-20T03:10:03;100739.06;;;11.47;100.00
20145;BME280;10233;50.814;6.590;2023-05-20T03:11:04;100733.91;;;11.46;100.00
20145;BME280;10233;50.814;6.590;2023-05-20T03:12:05;100736.41;;;11.47;100.00
20145;BME280;10233;50.814;6.590;2023-05-20T03:13:06;100733.72;;;11.47;100.00
20145;BME280;10233;50.814;6.590;2023-05-20T03:14:10;100736.16;;;11.42;100.00
20145;BME280;10233;50.814;6.590;2023-05-20T03:15:10;100733.69;;;11.41;100.00
20145;BME280;10233;50.814;6.590;2023-05-20T03:16:11;100734.91;;;11.38;100.00
20145;BME280;10233;50.814;6.590;2023-05-20T03:17:12;100739.34;;;11.31;100.00
20145;BME280;10233;50.814;6.590;2023-05-20T03:18:13;100735.69;;;11.32;100.00
20145;BME280;10233;50.814;6.590;2023-05-20T03:19:14;100737.31;;;11.33;100.00
20145;BME280;10233;50.814;6.590;2023-05-20T03:20:15;100736.47;;;11.33;100.00
20145;BME280;10233;50.814;6.590;2023-05-20T03:21:17;100725.84;;;11.33;100.00
20145;BME280;10233;50.814;6.590;2023-05-20T03:22:17;100736.88;;;11.30;100.00
20145;BME280;10233;50.814;6.590;2023-05-20T03:23:18;100738.91;;;11.28;100.00
20145;BME280;10233;50.814;6.590;2023-05-20T03:24:19;100735.22;;;11.29;100.00
20145;BME280;10233;50.814;6.590;2023-05-20T03:25:23;100736.44;;;11.26;100.00
20145;BME280;10233;50.814;6.590;2023-05-20T03:26:24;100737.50;;;11.32;100.00
20145;BME280;10233;50.814;6.590;2023-05-20T03:27:25;100740.34;;;11.30;100.00
20145;BME280;10233;50.814;6.590;2023-05-20T03:28:25;100729.16;;;11.35;100.00
20145;BME280;10233;50.814;6.590;2023-05-20T03:29:26;100740.03;;;11.40;100.00
20145;BME280;10233;50.814;6.590;2023-05-20T03:30:27;100729.56;;;11.38;100.00
20145;BME280;10233;50.814;6.590;2023-05-20T03:31:29;100732.81;;;11.34;100.00
20145;BME280;10233;50.814;6.590;2023-05-20T03:32:29;100731.56;;;11.30;100.00
20145;BME280;10233;50.814;6.590;2023-05-20T03:33:33;100736.06;;;11.29;100.00
20145;BME280;10233;50.814;6.590;2023-05-20T03:34:34;100732.41;;;11.37;100.00
20145;BME280;10233;50.814;6.590;2023-05-20T03:35:35;100730.78;;;11.36;100.00
20145;BME280;10233;50.814;6.590;2023-05-20T03:36:35;100737.13;;;11.35;100.00
20145;BME280;10233;50.814;6.590;2023-05-20T03:37:37;100738.38;;;11.39;100.00
20145;BME280;10233;50.814;6.590;2023-05-20T03:38:37;100745.13;;;11.41;100.00
20145;BME280;10233;50.814;6.590;2023-05-20T03:39:38;100734.09;;;11.44;100.00
20145;BME280;10233;50.814;6.590;2023-05-20T03:40:38;100731.81;;;11.41;100.00
20145;BME280;10233;50.814;6.590;2023-05-20T03:41:39;100732.47;;;11.43;100.00
20145;BME280;10233;50.814;6.590;2023-05-20T03:42:40;100734.91;;;11.38;100.00
20145;BME280;10233;50.814;6.590;2023-05-20T03:43:41;100734.06;;;11.38;100.00
20145;BME280;10233;50.814;6.590;2023-05-20T03:44:41;100742.69;;;11.40;100.00
20145;BME280;10233;50.814;6.590;2023-05-20T03:45:42;100738.41;;;11.45;100.00
20145;BME280;10233;50.814;6.590;2023-05-20T03:46:42;100736.59;;;11.46;100.00
20145;BME280;10233;50.814;6.590;2023-05-20T03:47:42;100740.09;;;11.46;100.00
20145;BME280;10233;50.814;6.590;2023-05-20T03:48:43;100738.47;;;11.52;100.00
20145;BME280;10233;50.814;6.590;2023-05-20T03:49:43;100737.41;;;11.46;100.00
20145;BME280;10233;50.814;6.590;2023-05-20T03:50:44;100736.41;;;11.47;100.00
20145;BME280;10233;50.814;6.590;2023-05-20T03:51:45;100739.66;;;11.49;100.00
20145;BME280;10233;50.814;6.590;2023-05-20T03:52:47;100727.56;;;11.47;100.00
20145;BME280;10233;50.814;6.590;2023-05-20T03:53:49;100738.22;;;11.47;100.00
20145;BME280;10233;50.814;6.590;2023-05-20T03:54:49;100735.19;;;11.50;100.00
20145;BME280;10233;50.814;6.590;2023-05-20T03:55:49;100733.31;;;11.50;100.00
20145;BME280;10233;50.814;6.590;2023-05-20T03:56:50;100739.09;;;11.54;100.00
20145;BME280;10233;50.814;6.590;2023-05-20T03:57:51;100739.28;;;11.52;100.00
20145;BME280;10233;50.814;6.590;2023-05-20T03:58:52;100731.53;;;11.57;100.00
20145;BME280;10233;50.814;6.590;2023-05-20T03:59:52;100733.78;;;11.54;100.00
20145;BME280;10233;50.814;6.590;2023-05-20T04:00:54;100741.16;;;11.58;100.00
20145;BME280;10233;50.814;6.590;2023-05-20T04:01:54;100735.50;;;11.61;100.00
20145;BME280;10233;50.814;6.590;2023-05-20T04:02:57;100736.28;;;11.62;100.00
20145;BME280;10233;50.814;6.590;2023-05-20T04:03:58;100730.59;;;11.65;100.00
20145;BME280;10233;50.814;6.590;2023-05-20T04:04:58;100735.28;;;11.63;100.00
20145;BME280;10233;50.814;6.590;2023-05-20T04:06:00;100734.88;;;11.66;100.00
20145;BME280;10233;50.814;6.590;2023-05-20T04:07:01;100736.72;;;11.65;100.00
20145;BME280;10233;50.814;6.590;2023-05-20T04:08:04;100740.03;;;11.67;100.00
20145;BME280;10233;50.814;6.590;2023-05-20T04:09:05;100737.97;;;11.69;100.00
20145;BME280;10233;50.814;6.590;2023-05-20T04:10:06;100742.47;;;11.62;100.00
20145;BME280;10233;50.814;6.590;2023-05-20T04:11:07;100729.75;;;11.64;100.00
20145;BME280;10233;50.814;6.590;2023-05-20T04:12:07;100740.41;;;11.64;100.00
20145;BME280;10233;50.814;6.590;2023-05-20T04:13:08;100734.06;;;11.65;100.00
20145;BME280;10233;50.814;6.590;2023-05-20T04:14:09;100738.25;;;11.53;100.00
20145;BME280;10233;50.814;6.590;2023-05-20T04:15:10;100736.03;;;11.57;100.00
20145;BME280;10233;50.814;6.590;2023-05-20T04:16:20;100734.66;;;11.61;100.00
20145;BME280;10233;50.814;6.590;2023-05-20T04:17:21;100732.19;;;11.59;100.00
20145;BME280;10233;50.814;6.590;2023-05-20T04:18:21;100741.44;;;11.63;100.00
20145;BME280;10233;50.814;6.590;2023-05-20T04:19:22;100740.06;;;11.74;100.00
20145;BME280;10233;50.814;6.590;2023-05-20T04:20:23;100739.63;;;11.70;100.00
20145;BME280;10233;50.814;6.590;2023-05-20T04:21:26;100742.50;;;11.75;100.00
20145;BME280;10233;50.814;6.590;2023-05-20T04:22:27;100743.94;;;11.71;100.00
20145;BME280;10233;50.814;6.590;2023-05-20T04:23:27;100736.38;;;11.75;100.00
20145;BME280;10233;50.814;6.590;2023-05-20T04:24:28;100740.88;;;11.74;100.00
20145;BME280;10233;50.814;6.590;2023-05-20T04:25:28;100741.28;;;11.78;100.00
20145;BME280;10233;50.814;6.590;2023-05-20T04:26:30;100741.75;;;11.81;100.00
20145;BME280;10233;50.814;6.590;2023-05-20T04:27:30;100739.50;;;11.85;100.00
20145;BME280;10233;50.814;6.590;2023-05-20T04:28:33;100739.31;;;11.86;100.00
20145;BME280;10233;50.814;6.590;2023-05-20T04:29:34;100739.13;;;11.88;100.00
20145;BME280;10233;50.814;6.590;2023-05-20T04:30:35;100733.97;;;11.86;100.00
20145;BME280;10233;50.814;6.590;2023-05-20T04:31:35;100738.28;;;11.87;100.00
20145;BME280;10233;50.814;6.590;2023-05-20T04:32:35;100731.13;;;11.88;100.00
20145;BME280;10233;50.814;6.590;2023-05-20T04:33:37;100730.31;;;11.94;100.00
20145;BME280;10233;50.814;6.590;2023-05-20T04:34:38;100739.19;;;12.07;100.00
20145;BME280;10233;50.814;6.590;2023-05-20T04:35:39;100740.22;;;12.06;100.00
20145;BME280;10233;50.814;6.590;2023-05-20T04:36:42;100735.28;;;12.03;100.00
20145;BME280;10233;50.814;6.590;2023-05-20T04:37:44;100740.63;;;12.10;100.00
20145;BME280;10233;50.814;6.590;2023-05-20T04:38:48;100743.56;;;12.21;100.00
20145;BME280;10233;50.814;6.590;2023-05-20T04:39:48;100741.09;;;12.20;100.00
20145;BME280;10233;50.814;6.590;2023-05-20T04:40:50;100744.97;;;12.17;100.00
20145;BME280;10233;50.814;6.590;2023-05-20T04:41:51;100745.38;;;12.21;100.00
20145;BME280;10233;50.814;6.590;2023-05-20T04:42:54;100743.16;;;12.24;100.00
20145;BME280;10233;50.814;6.590;2023-05-20T04:43:55;100744.84;;;12.32;100.00
20145;BME280;10233;50.814;6.590;2023-05-20T04:45:00;100748.28;;;12.32;100.00
20145;BME280;10233;50.814;6.590;2023-05-20T04:46:03;100743.81;;;12.33;100.00
20145;BME280;10233;50.814;6.590;2023-05-20T04:47:06;100748.28;;;12.32;100.00
20145;BME280;10233;50.814;6.590;2023-05-20T04:48:10;100742.16;;;12.32;100.00
20145;BME280;10233;50.814;6.590;2023-05-20T04:49:10;100742.78;;;12.40;100.00
20145;BME280;10233;50.814;6.590;2023-05-20T04:50:11;100751.81;;;12.39;100.00
20145;BME280;10233;50.814;6.590;2023-05-20T04:51:14;100735.22;;;12.44;100.00
20145;BME280;10233;50.814;6.590;2023-05-20T04:52:15;100744.25;;;12.43;100.00
20145;BME280;10233;50.814;6.590;2023-05-20T04:53:15;100739.94;;;12.48;100.00
20145;BME280;10233;50.814;6.590;2023-05-20T04:54:16;100739.13;;;12.54;100.00
20145;BME280;10233;50.814;6.590;2023-05-20T04:55:18;100746.91;;;12.56;100.00
20145;BME280;10233;50.814;6.590;2023-05-20T04:56:20;100742.81;;;12.60;100.00
20145;BME280;10233;50.814;6.590;2023-05-20T04:57:21;100744.09;;;12.70;100.00
20145;BME280;10233;50.814;6.590;2023-05-20T04:58:22;100745.34;;;12.81;100.00
20145;BME280;10233;50.814;6.590;2023-05-20T04:59:26;100744.13;;;12.83;100.00
20145;BME280;10233;50.814;6.590;2023-05-20T05:00:26;100740.19;;;12.79;100.00
20145;BME280;10233;50.814;6.590;2023-05-20T05:01:27;100730.78;;;12.83;100.00
20145;BME280;10233;50.814;6.590;2023-05-20T05:02:28;100737.75;;;12.91;100.00
20145;BME280;10233;50.814;6.590;2023-05-20T05:03:28;100740.81;;;12.94;100.00
20145;BME280;10233;50.814;6.590;2023-05-20T05:04:30;100735.09;;;12.91;100.00
20145;BME280;10233;50.814;6.590;2023-05-20T05:05:31;100739.78;;;12.89;100.00
20145;BME280;10233;50.814;6.590;2023-05-20T05:06:31;100733.03;;;12.93;100.00
20145;BME280;10233;50.814;6.590;2023-05-20T05:07:32;100734.69;;;13.00;100.00
20145;BME280;10233;50.814;6.590;2023-05-20T05:08:33;100736.13;;;13.09;100.00
20145;BME280;10233;50.814;6.590;2023-05-20T05:09:33;100730.19;;;13.01;100.00
20145;BME280;10233;50.814;6.590;2023-05-20T05:10:36;100729.16;;;13.02;100.00
20145;BME280;10233;50.814;6.590;2023-05-20T05:11:36;100739.44;;;12.98;100.00
20145;BME280;10233;50.814;6.590;2023-05-20T05:12:38;100733.25;;;12.98;100.00
20145;BME280;10233;50.814;6.590;2023-05-20T05:13:38;100731.63;;;13.03;100.00
20145;BME280;10233;50.814;6.590;2023-05-20T05:14:39;100739.00;;;13.01;100.00
20145;BME280;10233;50.814;6.590;2023-05-20T05:15:40;100732.63;;;13.15;100.00
20145;BME280;10233;50.814;6.590;2023-05-20T05:16:40;100735.72;;;13.19;100.00